Time;durP1;ratioP1;P1;durP2;ratioP2;P2;SDS_P1;SDS_P2;PMS_P1;PMS_P2;Temp;Humidity;BMP_temperature;BMP_pressure;BME280_temperature;BME280_humidity;BME280_pressure;Samples;Min_cycle;Max_cycle;Signal;HPM_P1;HPM_P2
2021/05/12 00:01:44;;;;;;;30.95;17.95;;;11.80;96.40;;;;;;5034536;28;20079;-86
2021/05/12 00:04:11;;;;;;;22.77;14.70;;;11.80;96.40;;;;;;5015477;28;20500;-84
2021/05/12 00:06:36;;;;;;;21.58;14.93;;;11.80;96.50;;;;;;5020978;28;20031;-83
2021/05/12 00:09:03;;;;;;;24.02;15.57;;;11.80;96.50;;;;;;5018467;28;20060;-85
2021/05/12 00:11:29;;;;;;;26.55;17.50;;;11.80;96.50;;;;;;5012432;28;20295;-83
2021/05/12 00:13:54;;;;;;;23.70;16.58;;;11.80;96.50;;;;;;5035984;28;20136;-86
2021/05/12 00:16:20;;;;;;;22.35;15.60;;;11.80;96.80;;;;;;5039760;28;20263;-82
2021/05/12 00:18:47;;;;;;;26.05;15.88;;;11.80;96.50;;;;;;5043530;28;20364;-83
2021/05/12 00:21:24;;;;;;;23.13;16.90;;;11.80;96.50;;;;;;5038182;28;20439;-83
2021/05/12 00:23:59;;;;;;;24.65;15.55;;;11.80;96.50;;;;;;5043572;28;20653;-83
2021/05/12 00:26:36;;;;;;;24.75;17.65;;;11.80;96.40;;;;;;5038261;28;20791;-83
2021/05/12 00:29:06;;;;;;;25.58;17.85;;;11.80;96.40;;;;;;5037309;28;20471;-83
2021/05/12 00:31:32;;;;;;;30.55;19.92;;;11.80;96.40;;;;;;5039851;28;20114;-83
2021/05/12 00:33:58;;;;;;;35.25;19.83;;;11.80;96.50;;;;;;5006729;28;20491;-85
2021/05/12 00:36:25;;;;;;;38.58;20.02;;;11.80;96.50;;;;;;5008503;28;20049;-86
2021/05/12 00:38:51;;;;;;;24.95;17.05;;;11.80;96.60;;;;;;5022241;28;20506;-84
2021/05/12 00:41:17;;;;;;;41.15;20.65;;;11.80;96.60;;;;;;5049881;28;20029;-85
2021/05/12 00:43:42;;;;;;;28.13;18.05;;;11.80;96.60;;;;;;5044756;28;20041;-85
2021/05/12 00:46:08;;;;;;;38.72;18.98;;;11.80;96.60;;;;;;4991738;28;20425;-84
2021/05/12 00:48:34;;;;;;;31.25;19.17;;;11.80;96.70;;;;;;5033110;28;20040;-86
2021/05/12 00:51:01;;;;;;;28.77;18.40;;;11.80;96.70;;;;;;5029089;28;20044;-85
2021/05/12 00:53:26;;;;;;;34.17;19.92;;;11.80;96.70;;;;;;5042937;28;20037;-86
2021/05/12 00:55:52;;;;;;;25.23;17.30;;;11.80;96.70;;;;;;4997290;28;20744;-82
2021/05/12 00:58:18;;;;;;;21.92;16.10;;;11.80;96.70;;;;;;5026629;28;20037;-86
2021/05/12 01:00:44;;;;;;;33.05;19.98;;;11.80;96.60;;;;;;5032377;28;20493;-85
2021/05/12 01:03:11;;;;;;;27.13;16.42;;;11.80;96.60;;;;;;5011810;28;20241;-84
2021/05/12 01:05:37;;;;;;;21.17;16.02;;;11.70;96.50;;;;;;5031204;28;20056;-83
2021/05/12 01:08:04;;;;;;;28.73;18.92;;;11.70;96.50;;;;;;5053922;28;20305;-83
2021/05/12 01:10:32;;;;;;;23.15;16.33;;;11.70;96.50;;;;;;5028822;28;20044;-85
2021/05/12 01:12:58;;;;;;;28.63;17.60;;;11.70;96.50;;;;;;5020468;28;20119;-83
2021/05/12 01:15:25;;;;;;;28.20;16.80;;;11.70;96.50;;;;;;5051378;28;20045;-84
2021/05/12 01:17:51;;;;;;;25.35;17.15;;;11.60;96.50;;;;;;5012586;28;20029;-84
2021/05/12 01:20:17;;;;;;;29.15;18.25;;;11.60;96.50;;;;;;5018852;28;20067;-83
2021/05/12 01:22:42;;;;;;;23.90;17.70;;;11.60;96.50;;;;;;5032389;28;20492;-83
2021/05/12 01:25:10;;;;;;;36.22;20.63;;;11.60;96.50;;;;;;4997441;28;20094;-84
2021/05/12 01:27:37;;;;;;;31.08;19.67;;;11.60;96.50;;;;;;5005938;28;20045;-83
2021/05/12 01:30:05;;;;;;;37.25;20.17;;;11.60;96.60;;;;;;5036843;28;20506;-86
2021/05/12 01:32:35;;;;;;;28.67;19.20;;;11.60;96.60;;;;;;5038701;28;20033;-84
2021/05/12 01:35:07;;;;;;;35.67;20.13;;;11.60;96.70;;;;;;5041290;28;20071;-84
2021/05/12 01:37:35;;;;;;;28.98;19.20;;;11.60;96.70;;;;;;5034392;28;20045;-85
2021/05/12 01:40:05;;;;;;;36.72;20.27;;;11.60;97.00;;;;;;5021140;28;20474;-84
2021/05/12 01:42:31;;;;;;;33.92;20.05;;;11.60;96.80;;;;;;5050178;28;20090;-85
2021/05/12 01:45:07;;;;;;;36.97;20.02;;;11.60;96.80;;;;;;5040033;28;20045;-85
2021/05/12 01:47:34;;;;;;;26.70;17.98;;;11.60;96.80;;;;;;5037806;28;20051;-84
2021/05/12 01:50:07;;;;;;;35.95;19.08;;;11.60;96.80;;;;;;5038616;28;20048;-84
2021/05/12 01:52:45;;;;;;;30.05;19.25;;;11.60;96.80;;;;;;5048895;28;20484;-85
2021/05/12 01:55:13;;;;;;;33.00;19.55;;;11.60;96.90;;;;;;5035352;28;20060;-86
2021/05/12 01:57:41;;;;;;;26.35;18.70;;;11.60;96.90;;;;;;5029176;28;20037;-84
2021/05/12 02:00:20;;;;;;;25.55;17.25;;;11.60;96.90;;;;;;5014262;28;20029;-84
2021/05/12 02:02:46;;;;;;;30.52;18.40;;;11.60;96.90;;;;;;5039101;28;20482;-85
2021/05/12 02:05:12;;;;;;;20.30;15.75;;;11.60;96.90;;;;;;5014371;28;20041;-86
2021/05/12 02:07:38;;;;;;;32.65;19.35;;;11.60;96.80;;;;;;5024127;28;20045;-84
2021/05/12 02:10:05;;;;;;;34.53;20.52;;;11.60;96.80;;;;;;5030106;28;20037;-86
2021/05/12 02:12:31;;;;;;;37.25;19.42;;;11.60;96.80;;;;;;5048725;28;20480;-84
2021/05/12 02:14:57;;;;;;;41.00;22.23;;;11.60;96.90;;;;;;5022019;28;20041;-85
2021/05/12 02:17:22;;;;;;;32.88;20.73;;;11.60;96.90;;;;;;5001809;28;20033;-85
2021/05/12 02:19:48;;;;;;;33.92;19.25;;;11.60;97.20;;;;;;5031246;28;20106;-85
2021/05/12 02:22:14;;;;;;;32.60;19.33;;;11.60;96.90;;;;;;5014508;28;20045;-84
2021/05/12 02:24:41;;;;;;;30.30;19.83;;;11.60;96.90;;;;;;5033046;28;20080;-85
2021/05/12 02:27:07;;;;;;;27.95;18.05;;;11.60;96.90;;;;;;5031097;28;20106;-85
2021/05/12 02:29:33;;;;;;;27.98;19.10;;;11.60;96.90;;;;;;5004899;28;20144;-85
2021/05/12 02:31:59;;;;;;;41.65;21.17;;;11.60;96.90;;;;;;5007695;28;20480;-86
2021/05/12 02:34:24;;;;;;;29.02;18.30;;;11.60;96.90;;;;;;5038424;28;20047;-84
2021/05/12 02:36:50;;;;;;;32.08;20.15;;;11.60;96.90;;;;;;5033981;28;20127;-85
2021/05/12 02:39:16;;;;;;;27.50;19.55;;;11.60;96.90;;;;;;4997857;28;20107;-86
2021/05/12 02:41:42;;;;;;;33.25;19.80;;;11.60;96.90;;;;;;5034445;28;20037;-83
2021/05/12 02:44:08;;;;;;;35.78;20.63;;;11.60;96.90;;;;;;5031603;28;20585;-85
2021/05/12 02:46:34;;;;;;;28.50;20.48;;;11.60;96.90;;;;;;5030962;28;20044;-84
2021/05/12 02:48:59;;;;;;;29.77;20.75;;;11.60;97.00;;;;;;5013945;28;20421;-85
2021/05/12 02:51:25;;;;;;;31.13;20.02;;;11.60;96.90;;;;;;4998655;28;21523;-84
2021/05/12 02:53:51;;;;;;;31.45;20.75;;;11.70;96.90;;;;;;5027227;28;20076;-85
2021/05/12 02:56:17;;;;;;;39.15;23.15;;;11.60;96.90;;;;;;5030568;28;20905;-83
2021/05/12 02:58:43;;;;;;;27.10;19.48;;;11.60;96.90;;;;;;5018532;28;20044;-83
2021/05/12 03:01:09;;;;;;;30.45;19.73;;;11.60;96.90;;;;;;5026281;28;20115;-83
2021/05/12 03:03:36;;;;;;;39.28;22.55;;;11.60;96.90;;;;;;5014237;28;20049;-84
2021/05/12 03:06:03;;;;;;;39.58;22.60;;;11.50;96.80;;;;;;5015304;28;20037;-84
2021/05/12 03:08:29;;;;;;;38.60;22.67;;;11.50;96.90;;;;;;5030686;28;20152;-86
2021/05/12 03:10:56;;;;;;;37.22;23.85;;;11.50;96.90;;;;;;5036138;28;20233;-87
2021/05/12 03:13:21;;;;;;;36.05;22.35;;;11.50;96.90;;;;;;5044554;28;21137;-87
2021/05/12 03:15:47;;;;;;;34.42;23.33;;;11.50;96.90;;;;;;5032464;28;20045;-87
2021/05/12 03:18:13;;;;;;;37.95;23.60;;;11.50;96.90;;;;;;5031003;28;20044;-87
2021/05/12 03:20:39;;;;;;;40.75;24.48;;;11.50;97.00;;;;;;5018461;28;20041;-86
2021/05/12 03:23:06;;;;;;;44.15;25.13;;;11.50;97.00;;;;;;5014604;28;20144;-84
2021/05/12 03:25:32;;;;;;;37.13;22.70;;;11.50;97.00;;;;;;5011221;28;20060;-86
2021/05/12 03:27:57;;;;;;;38.70;23.98;;;11.50;97.00;;;;;;4992908;28;20128;-83
2021/05/12 03:30:30;;;;;;;41.55;24.88;;;11.50;97.10;;;;;;5030640;28;20034;-83
2021/05/12 03:32:59;;;;;;;42.15;26.25;;;11.50;97.10;;;;;;5049178;28;20037;-86
2021/05/12 03:35:25;;;;;;;47.45;25.55;;;11.50;97.10;;;;;;5017481;28;20045;-86
2021/05/12 03:37:51;;;;;;;46.92;25.80;;;11.50;97.10;;;;;;4993303;28;20483;-86
2021/05/12 03:40:18;;;;;;;41.92;24.80;;;11.40;97.10;;;;;;5036909;28;20428;-83
2021/05/12 03:42:45;;;;;;;44.22;26.88;;;11.40;97.10;;;;;;5036025;28;20114;-86
2021/05/12 03:45:12;;;;;;;46.35;25.55;;;11.40;97.10;;;;;;5022861;28;20045;-85
2021/05/12 03:47:38;;;;;;;48.75;26.25;;;11.40;97.10;;;;;;5027850;28;20154;-85
2021/05/12 03:50:06;;;;;;;51.88;27.02;;;11.40;97.10;;;;;;4997255;28;20041;-86
2021/05/12 03:52:32;;;;;;;48.70;26.83;;;11.40;97.20;;;;;;5029111;28;20416;-86
2021/05/12 03:54:58;;;;;;;47.47;26.20;;;11.40;97.20;;;;;;4997712;28;20425;-84
2021/05/12 03:57:24;;;;;;;45.75;25.80;;;11.40;97.20;;;;;;5029651;28;20830;-86
2021/05/12 03:59:50;;;;;;;48.80;25.85;;;11.30;97.50;;;;;;5032432;28;20032;-86
2021/05/12 04:02:16;;;;;;;49.75;27.20;;;11.30;97.20;;;;;;5051944;28;20094;-83
2021/05/12 04:04:42;;;;;;;50.10;27.13;;;11.30;97.20;;;;;;5017757;28;20041;-83
2021/05/12 04:07:08;;;;;;;57.90;27.08;;;11.30;97.20;;;;;;5034134;28;20033;-83
2021/05/12 04:09:34;;;;;;;52.30;26.70;;;11.30;97.20;;;;;;5016532;28;20053;-85
2021/05/12 04:12:00;;;;;;;49.03;25.35;;;11.30;97.20;;;;;;5015369;28;20068;-87
2021/05/12 04:14:27;;;;;;;50.97;26.75;;;11.30;97.20;;;;;;4998301;28;20482;-84
2021/05/12 04:16:53;;;;;;;47.42;25.48;;;11.30;97.20;;;;;;5027392;28;20067;-86
2021/05/12 04:19:20;;;;;;;53.22;27.50;;;11.20;97.20;;;;;;5031319;28;20124;-87
2021/05/12 04:21:46;;;;;;;43.15;25.90;;;11.20;97.20;;;;;;5032436;28;20127;-87
2021/05/12 04:24:12;;;;;;;50.25;26.70;;;11.20;97.20;;;;;;5015671;28;20055;-87
2021/05/12 04:26:38;;;;;;;48.10;27.05;;;11.20;97.20;;;;;;5014114;28;20479;-85
2021/05/12 04:29:05;;;;;;;45.63;25.98;;;11.20;97.20;;;;;;5032355;28;20037;-87
2021/05/12 04:31:33;;;;;;;49.65;27.05;;;11.20;97.20;;;;;;5030500;28;20163;-85
2021/05/12 04:33:59;;;;;;;45.17;26.05;;;11.20;97.20;;;;;;4994113;28;20107;-86
2021/05/12 04:36:25;;;;;;;47.92;26.45;;;11.30;97.30;;;;;;5049299;28;20045;-82
2021/05/12 04:38:51;;;;;;;51.67;27.48;;;11.30;97.30;;;;;;5056406;28;20044;-85
2021/05/12 04:41:18;;;;;;;56.03;29.02;;;11.30;97.30;;;;;;5033394;28;20477;-85
2021/05/12 04:43:45;;;;;;;56.65;29.73;;;11.30;97.30;;;;;;5020979;28;20060;-84
2021/05/12 04:46:11;;;;;;;50.80;27.27;;;11.40;97.30;;;;;;5043360;28;20211;-80
2021/05/12 04:48:37;;;;;;;58.80;29.63;;;11.40;97.30;;;;;;5041195;28;20184;-87
2021/05/12 04:51:03;;;;;;;57.17;29.73;;;11.40;97.30;;;;;;5044630;28;20040;-85
2021/05/12 04:53:29;;;;;;;52.40;28.92;;;11.50;97.40;;;;;;5044681;28;20052;-86
2021/05/12 04:55:55;;;;;;;60.92;29.33;;;11.50;97.40;;;;;;5010506;28;20446;-87
2021/05/12 04:58:21;;;;;;;57.72;29.30;;;11.50;97.40;;;;;;5038749;28;20085;-84
2021/05/12 05:00:47;;;;;;;62.38;31.20;;;11.50;97.30;;;;;;5030114;28;20070;-85
2021/05/12 05:03:13;;;;;;;59.55;31.30;;;11.50;97.30;;;;;;5027687;28;20041;-85
2021/05/12 05:05:39;;;;;;;61.10;30.40;;;11.50;97.30;;;;;;5030393;28;20505;-86
2021/05/12 05:08:05;;;;;;;60.35;30.63;;;11.50;97.30;;;;;;5043528;28;20037;-86
2021/05/12 05:10:32;;;;;;;62.95;29.98;;;11.50;97.30;;;;;;5039323;28;20503;-85
2021/05/12 05:12:57;;;;;;;55.50;29.38;;;11.60;97.70;;;;;;5050603;28;20040;-85
2021/05/12 05:15:24;;;;;;;57.78;30.98;;;11.60;97.60;;;;;;5053621;28;20132;-85
2021/05/12 05:17:51;;;;;;;52.25;29.63;;;11.60;97.30;;;;;;5024272;28;20435;-86
2021/05/12 05:20:17;;;;;;;54.83;29.65;;;11.70;97.30;;;;;;5021569;28;20033;-86
2021/05/12 05:22:43;;;;;;;53.78;29.35;;;11.60;97.20;;;;;;5011225;28;20355;-86
2021/05/12 05:25:10;;;;;;;62.05;30.42;;;11.60;97.20;;;;;;5010598;28;20411;-84
2021/05/12 05:27:35;;;;;;;48.47;29.52;;;11.60;97.20;;;;;;5049154;28;20087;-86
2021/05/12 05:30:03;;;;;;;54.75;31.25;;;11.60;97.20;;;;;;5027327;28;20486;-87
2021/05/12 05:32:29;;;;;;;56.15;30.05;;;11.70;97.30;;;;;;5036346;28;20090;-86
2021/05/12 05:34:54;;;;;;;50.67;29.45;;;11.80;97.30;;;;;;5039519;28;20037;-85
2021/05/12 05:37:23;;;;;;;49.60;28.58;;;11.80;97.30;;;;;;5041404;28;20033;-84
2021/05/12 05:39:53;;;;;;;42.75;26.23;;;11.80;97.20;;;;;;5058757;28;20040;-87
2021/05/12 05:42:19;;;;;;;38.88;25.15;;;11.90;97.20;;;;;;5026667;28;20498;-89
2021/05/12 05:44:46;;;;;;;39.70;24.80;;;11.90;97.20;;;;;;4996236;28;20072;-85
2021/05/12 05:47:12;;;;;;;37.95;23.73;;;11.90;97.10;;;;;;5025786;28;20037;-84
2021/05/12 05:49:38;;;;;;;36.72;23.42;;;12.00;97.10;;;;;;5010635;28;20411;-86
2021/05/12 05:52:04;;;;;;;32.67;23.17;;;12.10;97.10;;;;;;5017141;28;20036;-88
2021/05/12 05:54:30;;;;;;;32.55;22.20;;;12.10;96.90;;;;;;5019876;28;20183;-86
2021/05/12 05:57:02;;;;;;;31.15;21.88;;;12.20;96.70;;;;;;5026114;28;20136;-85
2021/05/12 05:59:28;;;;;;;33.03;22.80;;;12.20;96.60;;;;;;5023273;28;20116;-86
2021/05/12 06:01:55;;;;;;;31.48;22.52;;;12.20;96.50;;;;;;4990628;28;20132;-85
2021/05/12 06:04:23;;;;;;;32.95;22.52;;;12.30;96.40;;;;;;5007940;28;20037;-85
2021/05/12 06:06:50;;;;;;;37.67;22.90;;;12.30;96.40;;;;;;5012181;28;20037;-86
2021/05/12 06:09:19;;;;;;;32.75;22.02;;;12.30;96.40;;;;;;4989818;28;20044;-87
2021/05/12 06:11:45;;;;;;;31.95;19.92;;;12.40;96.30;;;;;;5024956;28;20485;-86
2021/05/12 06:14:11;;;;;;;31.75;20.85;;;12.50;96.20;;;;;;5007359;28;20147;-86
2021/05/12 06:16:37;;;;;;;29.60;20.92;;;12.50;96.00;;;;;;5040117;28;20037;-85
2021/05/12 06:19:03;;;;;;;29.55;19.60;;;12.60;95.90;;;;;;5020452;28;20099;-85
2021/05/12 06:21:29;;;;;;;28.83;18.60;;;12.70;95.80;;;;;;5013044;28;20049;-87
2021/05/12 06:23:55;;;;;;;26.55;18.88;;;12.80;95.70;;;;;;5029394;28;20059;-88
2021/05/12 06:26:22;;;;;;;19.63;14.45;;;12.80;95.60;;;;;;5010496;28;20117;-85
2021/05/12 06:28:48;;;;;;;22.02;13.00;;;12.90;95.40;;;;;;5033535;28;20218;-86
2021/05/12 06:31:15;;;;;;;21.08;14.73;;;13.00;95.00;;;;;;5030736;28;20251;-87
2021/05/12 06:33:46;;;;;;;23.75;14.23;;;12.90;94.70;;;;;;5026805;28;20037;-85
2021/05/12 06:36:12;;;;;;;16.80;12.65;;;13.00;94.60;;;;;;5028350;28;20092;-87
2021/05/12 06:38:38;;;;;;;19.15;11.40;;;13.00;94.30;;;;;;5044788;28;20033;-86
2021/05/12 06:41:04;;;;;;;20.40;11.65;;;13.00;94.00;;;;;;5048177;28;20029;-84
2021/05/12 06:43:30;;;;;;;16.65;11.57;;;13.00;93.80;;;;;;5033313;28;20055;-86
2021/05/12 06:45:56;;;;;;;18.08;11.23;;;13.00;93.70;;;;;;5029076;28;20029;-86
2021/05/12 06:48:22;;;;;;;17.02;9.95;;;13.00;93.80;;;;;;5043677;28;20036;-86
2021/05/12 06:50:48;;;;;;;13.93;8.20;;;13.10;93.70;;;;;;5042726;28;20243;-85
2021/05/12 06:53:23;;;;;;;12.23;7.07;;;13.20;93.30;;;;;;5024408;28;20083;-87
2021/05/12 06:55:49;;;;;;;12.82;7.05;;;13.30;92.80;;;;;;5029086;28;20517;-88
2021/05/12 06:58:15;;;;;;;18.75;6.85;;;13.50;92.60;;;;;;5009832;28;20076;-87
2021/05/12 07:00:41;;;;;;;13.95;7.30;;;13.50;92.30;;;;;;5038574;28;20033;-86
2021/05/12 07:03:07;;;;;;;15.77;7.57;;;13.70;92.10;;;;;;5039063;28;20500;-87
2021/05/12 07:05:32;;;;;;;15.20;7.47;;;13.70;91.80;;;;;;5040450;28;20040;-86
2021/05/12 07:07:59;;;;;;;15.55;7.75;;;13.80;91.50;;;;;;5028416;28;20475;-84
2021/05/12 07:10:24;;;;;;;15.73;7.40;;;13.90;91.40;;;;;;5026817;28;20052;-87
2021/05/12 07:12:51;;;;;;;18.73;7.70;;;14.00;91.20;;;;;;5026437;28;20045;-89
2021/05/12 07:15:17;;;;;;;17.13;7.28;;;14.10;90.90;;;;;;5017322;28;20092;-85
2021/05/12 07:17:43;;;;;;;12.48;5.88;;;14.10;90.80;;;;;;5027571;28;20060;-85
2021/05/12 07:20:09;;;;;;;15.18;6.65;;;14.20;90.40;;;;;;5048699;28;20036;-84
2021/05/12 07:22:35;;;;;;;12.75;6.50;;;14.20;90.20;;;;;;5015604;28;20044;-86
2021/05/12 07:25:01;;;;;;;14.50;6.13;;;14.10;89.80;;;;;;5002820;28;20055;-86
2021/05/12 07:27:28;;;;;;;17.77;6.40;;;14.20;89.00;;;;;;5021385;28;20127;-86
2021/05/12 07:29:54;;;;;;;15.32;5.72;;;14.20;88.50;;;;;;5032471;28;20611;-87
2021/05/12 07:32:21;;;;;;;13.43;6.32;;;14.10;88.20;;;;;;5044338;28;20036;-85
2021/05/12 07:34:51;;;;;;;12.35;6.15;;;14.20;88.60;;;;;;5040807;28;20029;-85
2021/05/12 07:37:29;;;;;;;13.23;5.40;;;14.20;88.30;;;;;;5029205;28;20041;-88
2021/05/12 07:39:54;;;;;;;16.20;5.63;;;14.30;88.00;;;;;;5001360;28;20067;-81
2021/05/12 07:42:24;;;;;;;11.75;5.78;;;14.30;88.10;;;;;;5033340;28;20060;-85
2021/05/12 07:44:50;;;;;;;12.63;5.07;;;14.40;88.00;;;;;;5035072;28;20454;-82
2021/05/12 07:47:16;;;;;;;14.07;5.45;;;14.40;87.30;;;;;;5019919;28;20029;-81
2021/05/12 07:49:43;;;;;;;11.65;4.55;;;14.50;86.80;;;;;;5058388;28;20044;-83
2021/05/12 07:52:15;;;;;;;11.40;4.80;;;14.50;86.50;;;;;;5018298;28;20060;-84
2021/05/12 07:54:42;;;;;;;11.80;3.80;;;14.60;85.50;;;;;;5022519;28;20041;-83
2021/05/12 07:57:10;;;;;;;6.78;3.25;;;14.60;84.80;;;;;;5029001;28;20029;-85
2021/05/12 07:59:36;;;;;;;8.75;3.45;;;14.60;84.50;;;;;;5026620;28;20063;-82
2021/05/12 08:02:04;;;;;;;13.20;3.55;;;14.60;83.40;;;;;;5041563;28;20042;-83
2021/05/12 08:04:33;;;;;;;7.85;3.60;;;14.60;83.50;;;;;;5030644;28;20060;-84
2021/05/12 08:07:19;;;;;;;6.63;3.05;;;14.60;83.20;;;;;;5019267;28;20049;-83
2021/05/12 08:09:45;;;;;;;11.73;3.83;;;14.70;83.20;;;;;;5008584;28;20053;-83
2021/05/12 08:12:11;;;;;;;13.88;3.95;;;14.70;83.00;;;;;;5029541;28;20112;-83
2021/05/12 08:14:38;;;;;;;10.27;4.18;;;14.70;82.50;;;;;;5047886;28;20040;-85
2021/05/12 08:17:09;;;;;;;9.88;4.05;;;14.80;82.70;;;;;;5029436;28;20416;-83
2021/05/12 08:19:39;;;;;;;13.60;3.70;;;14.80;82.70;;;;;;5011628;28;20311;-85
2021/05/12 08:22:05;;;;;;;11.88;3.60;;;14.80;82.30;;;;;;5030815;28;20098;-83
2021/05/12 08:24:36;;;;;;;11.00;4.00;;;14.90;82.10;;;;;;5060267;28;20407;-83
2021/05/12 08:27:04;;;;;;;9.27;3.75;;;14.90;82.10;;;;;;5042456;28;20292;-83
2021/05/12 08:29:31;;;;;;;10.65;3.33;;;14.90;82.00;;;;;;5058371;28;20041;-82
2021/05/12 08:31:58;;;;;;;11.02;3.65;;;15.00;81.90;;;;;;5032142;28;20106;-82
2021/05/12 08:34:44;;;;;;;10.55;3.75;;;15.00;80.70;;;;;;5005591;28;20166;-83
2021/05/12 08:37:29;;;;;;;11.15;4.07;;;15.10;80.90;;;;;;5016172;28;20106;-83
2021/05/12 08:39:55;;;;;;;7.50;2.88;;;15.10;80.90;;;;;;5033779;28;20549;-84
2021/05/12 08:42:23;;;;;;;8.40;3.08;;;15.10;80.50;;;;;;5021931;28;20317;-83
2021/05/12 08:44:50;;;;;;;10.70;3.40;;;15.20;80.90;;;;;;5063549;28;20151;-82
2021/05/12 08:47:17;;;;;;;7.82;3.00;;;15.20;79.60;;;;;;5029273;28;20035;-80
2021/05/12 08:49:44;;;;;;;10.93;3.17;;;15.30;79.70;;;;;;5035726;28;20031;-80
2021/05/12 08:52:10;;;;;;;6.65;3.28;;;15.30;80.00;;;;;;5065231;28;20044;-83
2021/05/12 08:54:37;;;;;;;10.55;3.30;;;15.40;79.30;;;;;;5048433;28;20495;-82
2021/05/12 08:57:03;;;;;;;7.18;2.58;;;15.40;79.20;;;;;;5065782;28;20032;-81
2021/05/12 08:59:29;;;;;;;7.18;2.13;;;15.40;79.30;;;;;;5024329;28;20047;-83
2021/05/12 09:01:55;;;;;;;6.15;2.13;;;15.50;79.50;;;;;;5016476;28;20044;-84
2021/05/12 09:04:21;;;;;;;6.22;2.08;;;15.60;79.10;;;;;;5040340;28;20047;-82
2021/05/12 09:06:49;;;;;;;5.18;1.80;;;15.60;78.50;;;;;;5026643;28;20036;-83
2021/05/12 09:09:16;;;;;;;6.78;1.92;;;15.70;78.60;;;;;;5056482;28;20041;-83
2021/05/12 09:11:42;;;;;;;8.23;2.25;;;15.60;78.30;;;;;;5028372;28;20036;-84
2021/05/12 09:14:34;;;;;;;5.05;1.95;;;15.70;78.20;;;;;;5027186;28;20029;-81
2021/05/12 09:17:01;;;;;;;5.40;1.98;;;15.70;77.70;;;;;;5054564;28;20119;-82
2021/05/12 09:19:28;;;;;;;8.88;2.05;;;15.70;77.50;;;;;;5026533;28;20104;-83
2021/05/12 09:22:00;;;;;;;4.72;1.70;;;15.80;78.20;;;;;;5045614;28;20454;-82
2021/05/12 09:24:30;;;;;;;;;;;15.90;77.00;;;;;;5053076;28;20037;-84
2021/05/12 09:27:02;;;;;;;4.97;1.73;;;15.90;78.40;;;;;;5036177;28;19916;-84
2021/05/12 09:29:35;;;;;;;7.72;1.92;;;15.90;77.10;;;;;;5051164;28;20033;-82
2021/05/12 09:32:11;;;;;;;;;;;16.00;76.60;;;;;;5053504;28;20388;-82
2021/05/12 09:34:55;;;;;;;7.53;1.60;;;16.00;77.60;;;;;;5061534;28;19916;-83
2021/05/12 09:37:26;;;;;;;4.97;1.80;;;16.00;77.30;;;;;;5042170;28;20611;-82
2021/05/12 09:39:53;;;;;;;4.70;1.33;;;16.00;77.60;;;;;;5063236;28;20028;-83
2021/05/12 09:42:20;;;;;;;4.47;1.48;;;15.90;76.20;;;;;;5032439;28;20605;-81
2021/05/12 09:44:46;;;;;;;5.47;1.60;;;15.90;76.50;;;;;;5041757;28;20406;-81
2021/05/12 09:47:29;;;;;;;4.22;1.25;;;15.90;76.30;;;;;;5039612;28;20400;-81
2021/05/12 09:49:56;;;;;;;8.65;1.73;;;15.90;75.90;;;;;;5045533;28;20052;-80
2021/05/12 09:52:29;;;;;;;7.15;1.50;;;15.90;76.10;;;;;;5066751;28;20721;-84
2021/05/12 09:55:03;;;;;;;5.13;1.60;;;15.90;75.90;;;;;;5022331;28;20037;-83
2021/05/12 09:57:29;;;;;;;7.22;1.60;;;15.80;75.40;;;;;;5022435;28;20103;-81
2021/05/12 09:59:54;;;;;;;6.00;1.58;;;15.80;76.00;;;;;;5038576;28;20033;-83
2021/05/12 10:02:20;;;;;;;8.93;1.90;;;15.90;75.10;;;;;;5060170;28;20040;-83
2021/05/12 10:04:47;;;;;;;5.85;1.92;;;15.90;75.00;;;;;;5024908;28;20037;-84
2021/05/12 10:07:21;;;;;;;5.35;1.40;;;16.00;74.80;;;;;;5039435;28;20036;-83
2021/05/12 10:09:55;;;;;;;7.07;2.05;;;16.00;74.30;;;;;;5045295;28;20028;-85
2021/05/12 10:12:26;;;;;;;7.28;1.70;;;16.10;74.40;;;;;;5051737;28;20485;-82
2021/05/12 10:14:56;;;;;;;8.00;1.42;;;16.10;74.20;;;;;;5054268;28;20033;-83
2021/05/12 10:17:25;;;;;;;6.65;1.80;;;16.20;74.40;;;;;;5071219;28;20033;-83
2021/05/12 10:19:51;;;;;;;9.90;1.58;;;16.30;74.60;;;;;;5053267;28;20048;-82
2021/05/12 10:22:18;;;;;;;8.48;1.67;;;16.40;74.50;;;;;;5048378;28;20036;-84
2021/05/12 10:24:46;;;;;;;9.07;1.67;;;16.50;74.90;;;;;;5025866;28;20063;-83
2021/05/12 10:27:13;;;;;;;9.15;2.00;;;16.60;73.00;;;;;;5054308;28;20033;-84
2021/05/12 10:29:42;;;;;;;6.70;1.63;;;16.80;72.40;;;;;;5068726;28;20034;-83
2021/05/12 10:32:25;;;;;;;6.72;1.45;;;16.80;71.40;;;;;;5053804;28;20029;-83
2021/05/12 10:35:03;;;;;;;6.65;1.55;;;16.80;71.80;;;;;;5070057;28;20488;-84
2021/05/12 10:37:31;;;;;;;5.88;1.38;;;16.80;72.10;;;;;;5052299;28;20042;-83
2021/05/12 10:40:02;;;;;;;6.95;1.25;;;16.90;71.20;;;;;;5046133;28;20567;-83
2021/05/12 10:42:49;;;;;;;8.02;1.50;;;16.90;70.00;;;;;;5058507;28;20055;-84
2021/05/12 10:45:54;;;;;;;9.98;1.95;;;16.80;68.60;;;;;;5033755;28;20140;-85
2021/05/12 10:48:38;;;;;;;4.93;1.38;;;16.80;68.50;;;;;;5050352;28;20083;-83
2021/05/12 10:51:24;;;;;;;6.55;1.40;;;16.70;70.00;;;;;;5049165;28;20029;-81
2021/05/12 10:53:55;;;;;;;8.18;1.45;;;16.60;70.70;;;;;;5037650;28;20060;-81
2021/05/12 10:56:42;;;;;;;7.47;1.42;;;16.60;70.60;;;;;;5041255;28;20267;-81
2021/05/12 10:59:13;;;;;;;7.28;1.52;;;16.70;71.30;;;;;;5039050;28;20084;-81
2021/05/12 11:01:42;;;;;;;4.95;1.17;;;16.70;71.20;;;;;;5027410;28;20033;-81
2021/05/12 11:04:13;;;;;;;7.95;1.45;;;16.80;70.40;;;;;;5045088;28;20063;-81
2021/05/12 11:06:39;;;;;;;5.28;1.30;;;16.90;69.30;;;;;;5048562;28;20119;-81
2021/05/12 11:09:07;;;;;;;5.00;1.50;;;17.00;69.20;;;;;;5047982;28;21008;-82
2021/05/12 11:11:45;;;;;;;7.13;1.58;;;17.20;69.00;;;;;;5052828;28;20036;-82
2021/05/12 11:14:22;;;;;;;8.07;1.42;;;17.30;68.10;;;;;;5045106;28;20530;-83
2021/05/12 11:17:12;;;;;;;9.15;1.50;;;17.40;67.30;;;;;;5043725;28;20630;-82
2021/05/12 11:33:33;;;;;;;7.55;1.65;;;18.40;66.30;;;;;;5059466;28;20032;-83
2021/05/12 11:36:09;;;;;;;8.02;1.60;;;18.50;65.80;;;;;;5045505;28;20029;-81
2021/05/12 11:38:37;;;;;;;10.13;1.50;;;18.50;64.90;;;;;;5056769;28;20041;-83
2021/05/12 11:41:16;;;;;;;8.85;1.90;;;18.50;65.30;;;;;;5030645;28;20484;-83
2021/05/12 11:43:50;;;;;;;7.40;1.52;;;18.40;64.60;;;;;;5037344;28;20537;-83
2021/05/12 11:46:31;;;;;;;8.88;1.50;;;18.30;65.00;;;;;;5046568;28;20091;-81
2021/05/12 11:49:05;;;;;;;6.63;1.33;;;18.30;66.40;;;;;;5049456;28;20044;-82
2021/05/12 11:51:37;;;;;;;8.00;1.40;;;18.20;65.00;;;;;;5037729;28;20084;-82
2021/05/12 11:54:25;;;;;;;8.20;1.50;;;18.10;65.20;;;;;;5054180;28;20045;-82
2021/05/12 11:56:54;;;;;;;11.05;1.90;;;18.10;65.20;;;;;;5045527;28;20055;-82
2021/05/12 11:59:30;;;;;;;10.55;1.42;;;18.10;65.70;;;;;;5045060;28;20071;-82
2021/05/12 12:02:11;;;;;;;9.10;1.77;;;18.00;66.10;;;;;;5064713;28;20402;-82
2021/05/12 12:04:50;;;;;;;7.40;1.40;;;17.90;64.60;;;;;;5063604;28;20268;-83
2021/05/12 12:07:16;;;;;;;8.80;1.52;;;17.70;64.80;;;;;;5065428;28;20029;-82
2021/05/12 12:09:45;;;;;;;8.98;2.17;;;17.60;65.60;;;;;;5029479;28;20078;-83
2021/05/12 12:12:11;;;;;;;14.00;1.90;;;17.60;65.80;;;;;;5049802;28;20033;-82
2021/05/12 12:14:38;;;;;;;8.82;1.90;;;17.60;65.50;;;;;;5050124;28;20407;-83
2021/05/12 12:17:11;;;;;;;6.45;1.60;;;17.60;64.70;;;;;;5038147;28;20401;-83
2021/05/12 12:19:37;;;;;;;5.95;1.40;;;17.70;64.00;;;;;;5040271;28;20096;-83
2021/05/12 12:22:06;;;;;;;8.20;1.60;;;17.70;64.70;;;;;;5033944;28;20036;-84
2021/05/12 12:24:33;;;;;;;10.65;1.70;;;17.70;63.60;;;;;;5052622;28;20120;-83
2021/05/12 12:27:00;;;;;;;3.95;1.20;;;17.90;63.80;;;;;;5049999;28;20074;-83
2021/05/12 12:29:31;;;;;;;6.38;1.48;;;17.90;62.70;;;;;;5024621;28;20124;-82
2021/05/12 12:32:16;;;;;;;10.40;1.77;;;17.80;62.90;;;;;;5027485;28;20526;-82
2021/05/12 12:34:46;;;;;;;10.15;1.70;;;17.70;63.20;;;;;;5028058;28;20131;-84
2021/05/12 12:37:18;;;;;;;9.23;1.95;;;17.70;63.60;;;;;;5027172;28;20041;-83
2021/05/12 12:40:00;;;;;;;6.35;1.50;;;17.80;63.70;;;;;;5017020;28;20079;-83
2021/05/12 12:42:29;;;;;;;11.10;2.10;;;17.70;63.60;;;;;;5051574;28;20035;-82
2021/05/12 12:44:56;;;;;;;9.07;1.55;;;17.70;63.60;;;;;;5051535;28;20041;-82
2021/05/12 12:47:23;;;;;;;8.15;1.35;;;17.70;63.40;;;;;;5043326;28;20047;-83
2021/05/12 12:50:01;;;;;;;9.30;1.60;;;17.70;63.50;;;;;;5039456;28;20031;-83
2021/05/12 12:52:29;;;;;;;5.70;1.42;;;17.70;63.20;;;;;;5054093;28;20062;-83
2021/05/12 12:55:05;;;;;;;8.93;1.67;;;17.60;62.70;;;;;;5047863;28;20037;-82
2021/05/12 12:57:46;;;;;;;8.38;1.73;;;17.50;62.30;;;;;;5066695;28;20045;-82